Griffith, New South Wales

9:21 AM AEST on August 05, 2015 (GMT +1000)
INSWBEEL2 | | Change Station
CLOSE
Current Station
Personal Weather Station
Location: Beelbangera, NSW
Elevation: 426 ft
Nearby Weather Stations

Elev 426 ft 34.27 °S, 146.11 °E | Updated 57 seconds ago

Overcast
Overcast
46.9 °F
Feels Like 43 °F
N
8.0
Wind Variable Wind from WNW
Gusts 14.0 mph

Today
High -- | Low -- °F
--% Chance of Precip.
Yesterday
High -- | Low -- °F
Precip. -- in
7:06 AM 5:37 PM
Waning Gibbous, 73% visible
Pressure 30.04 in
Visibility 6.2 miles
Clouds Mostly Cloudy 1000 ft
Overcast 4900 ft
Windchill 43 °F
Dew Point 44 °F
Humidity 88%
Rainfall 0.00 in
Snow Depth Not available.
UV 0.6 out of 12
Pollen Not available.
Air Quality Not available.
Flu Activity Not available.
SPECI YGTH 042300Z AUTO 30014KT 9999 // BKN010 OVC049 08/07 Q1017

More Conditions Fewer Conditions

Pressure 30.04 in
Visibility 6.2 miles
Clouds Mostly Cloudy 1000 ft
Overcast 4900 ft
Windchill 43 °F
Dew Point 44 °F
Humidity 88%
Rainfall 0.00 in
Snow Depth Not available.
UV 0.6 out of 12
Pollen Not available.
Air Quality Not available.
Flu Activity Not available.
SPECI YGTH 042300Z AUTO 30014KT 9999 // BKN010 OVC049 08/07 Q1017

More Conditions Fewer Conditions

10-Day Weather Forecast

×

Almanac

Astronomy

Aug. 05, 2015 Rise Set
Actual Time
Civil Twilight
Nautical Twilight
Astronomical Twilight
Moon
Length of Visible Light
Length of Day
Tomorrow will be .
, % of the Moon is Illuminated

Today's Extremes

Country Highs Country Lows

Community

WunderPhotos

Upload Photos

1,844,025 photos uploaded!

WunderBlogs® & News

Nearby

Air Quality

  Air Quality AQ Index Pollutant
Not available.

Snow Depth

Station Depth Elevation

Earthquake Activity

City Distance Mag. Time & Date
Minimum magnitude displayed is 2.5.

Coastal Water Temperatures

Place Temperature

Stations

Nearby Weather Stations

Station Location Temp. Windchill Dew Point Humidity Wind Precip. Elev Updated Type